KHMN/HMN METAR and TAF weather

Enter ICAO airport designator
Station Type Date Time Source
KHMN METAR 2024/05/28 21:55 UTC NOAA

KHMN 282155Z AUTO 23011G19KT 10SM CLR 36/M07 A3001 RMK AO2 SLP090 T03571075 $


Station Type Date Time Source
KHMN Decoded METAR 2024/05/28 21:55 UTC NOAA

Holloman Air Force Base, NM, United States (KHMN) 32-51N 106-06W 1248M
May 28, 2024 - 05:55 PM EDT / 2024.05.28 2155 UTC
Wind: from the SW (230 degrees) at 13 MPH (11 KT) gusting to 22 MPH (19 KT):0
Visibility: 10 mile(s):0
Sky conditions: clear
Temperature: 96.3 F (35.7 C)
Dew Point: 18.5 F (-7.5 C)
Relative Humidity: 5%
Pressure (altimeter): 30.01 in. Hg (1016 hPa)
ob: KHMN 282155Z AUTO 23011G19KT 10SM CLR 36/M07 A3001 RMK AO2 SLP090 T03571075
cycle: 22

Station Type Date Time Source
KHMN TAF 2024/05/28 17:03 UTC NOAA